sensor_id;sensor_type;location;lat;lon;timestamp;P1;durP1;ratioP1;P2;durP2;ratioP2
6834;SDS011;3455;42.150;24.734;2023-04-07T00:00:12;8.90;;;8.23;;
6834;SDS011;3455;42.150;24.734;2023-04-07T00:02:40;8.23;;;7.50;;
6834;SDS011;3455;42.150;24.734;2023-04-07T00:05:07;7.90;;;7.20;;
6834;SDS011;3455;42.150;24.734;2023-04-07T00:07:33;8.87;;;7.97;;
6834;SDS011;3455;42.150;24.734;2023-04-07T00:10:00;8.53;;;7.77;;
6834;SDS011;3455;42.150;24.734;2023-04-07T00:12:28;7.13;;;6.73;;
6834;SDS011;3455;42.150;24.734;2023-04-07T00:14:55;8.63;;;7.87;;
6834;SDS011;3455;42.150;24.734;2023-04-07T00:17:22;7.70;;;7.20;;
6834;SDS011;3455;42.150;24.734;2023-04-07T00:19:49;8.30;;;7.53;;
6834;SDS011;3455;42.150;24.734;2023-04-07T00:22:15;8.70;;;8.00;;
6834;SDS011;3455;42.150;24.734;2023-04-07T00:24:42;8.13;;;7.53;;
6834;SDS011;3455;42.150;24.734;2023-04-07T00:27:09;7.73;;;7.23;;
6834;SDS011;3455;42.150;24.734;2023-04-07T00:29:37;7.87;;;7.30;;
6834;SDS011;3455;42.150;24.734;2023-04-07T00:32:04;8.67;;;7.97;;
6834;SDS011;3455;42.150;24.734;2023-04-07T00:34:30;8.43;;;7.90;;
6834;SDS011;3455;42.150;24.734;2023-04-07T00:36:57;8.10;;;7.57;;
6834;SDS011;3455;42.150;24.734;2023-04-07T00:39:24;8.40;;;7.77;;
6834;SDS011;3455;42.150;24.734;2023-04-07T00:41:52;7.60;;;7.20;;
6834;SDS011;3455;42.150;24.734;2023-04-07T00:44:18;7.87;;;7.37;;
6834;SDS011;3455;42.150;24.734;2023-04-07T00:46:47;9.07;;;8.27;;
6834;SDS011;3455;42.150;24.734;2023-04-07T00:49:14;8.43;;;7.93;;
6834;SDS011;3455;42.150;24.734;2023-04-07T00:51:41;10.67;;;9.77;;
6834;SDS011;3455;42.150;24.734;2023-04-07T00:54:09;10.00;;;8.93;;
6834;SDS011;3455;42.150;24.734;2023-04-07T00:56:36;11.47;;;8.63;;
6834;SDS011;3455;42.150;24.734;2023-04-07T00:59:02;9.33;;;8.60;;
6834;SDS011;3455;42.150;24.734;2023-04-07T01:01:31;9.10;;;8.30;;
6834;SDS011;3455;42.150;24.734;2023-04-07T01:04:06;7.83;;;7.23;;
6834;SDS011;3455;42.150;24.734;2023-04-07T01:06:39;8.30;;;7.60;;
6834;SDS011;3455;42.150;24.734;2023-04-07T01:09:10;8.60;;;7.40;;
6834;SDS011;3455;42.150;24.734;2023-04-07T01:11:45;7.47;;;6.87;;
6834;SDS011;3455;42.150;24.734;2023-04-07T01:14:20;8.13;;;7.33;;
6834;SDS011;3455;42.150;24.734;2023-04-07T01:16:50;7.27;;;6.50;;
6834;SDS011;3455;42.150;24.734;2023-04-07T01:19:28;7.70;;;6.60;;
6834;SDS011;3455;42.150;24.734;2023-04-07T01:21:59;7.13;;;6.63;;
6834;SDS011;3455;42.150;24.734;2023-04-07T01:24:37;9.73;;;6.80;;
6834;SDS011;3455;42.150;24.734;2023-04-07T01:27:20;8.27;;;6.93;;
6834;SDS011;3455;42.150;24.734;2023-04-07T01:29:58;7.33;;;6.73;;
6834;SDS011;3455;42.150;24.734;2023-04-07T01:32:28;7.60;;;7.00;;
6834;SDS011;3455;42.150;24.734;2023-04-07T01:34:56;7.23;;;6.63;;
6834;SDS011;3455;42.150;24.734;2023-04-07T01:37:25;7.87;;;7.27;;
6834;SDS011;3455;42.150;24.734;2023-04-07T01:39:53;8.30;;;7.60;;
6834;SDS011;3455;42.150;24.734;2023-04-07T01:42:20;8.30;;;7.43;;
6834;SDS011;3455;42.150;24.734;2023-04-07T01:44:47;7.53;;;6.77;;
6834;SDS011;3455;42.150;24.734;2023-04-07T01:47:17;7.03;;;6.43;;
6834;SDS011;3455;42.150;24.734;2023-04-07T01:49:44;7.97;;;7.17;;
6834;SDS011;3455;42.150;24.734;2023-04-07T01:52:13;7.50;;;6.77;;
6834;SDS011;3455;42.150;24.734;2023-04-07T01:54:40;11.00;;;6.53;;
6834;SDS011;3455;42.150;24.734;2023-04-07T01:57:08;7.80;;;6.77;;
6834;SDS011;3455;42.150;24.734;2023-04-07T01:59:34;7.40;;;6.90;;
6834;SDS011;3455;42.150;24.734;2023-04-07T02:02:01;7.10;;;6.67;;
6834;SDS011;3455;42.150;24.734;2023-04-07T02:04:30;8.07;;;6.50;;
6834;SDS011;3455;42.150;24.734;2023-04-07T02:07:02;6.90;;;6.30;;
6834;SDS011;3455;42.150;24.734;2023-04-07T02:09:33;7.40;;;6.60;;
6834;SDS011;3455;42.150;24.734;2023-04-07T02:12:04;7.20;;;6.53;;
6834;SDS011;3455;42.150;24.734;2023-04-07T02:14:37;6.73;;;6.23;;
6834;SDS011;3455;42.150;24.734;2023-04-07T02:17:04;8.13;;;7.37;;
6834;SDS011;3455;42.150;24.734;2023-04-07T02:19:33;6.30;;;5.90;;
6834;SDS011;3455;42.150;24.734;2023-04-07T02:22:00;6.50;;;6.00;;
6834;SDS011;3455;42.150;24.734;2023-04-07T02:24:28;7.70;;;7.00;;
6834;SDS011;3455;42.150;24.734;2023-04-07T02:26:55;7.53;;;6.90;;
6834;SDS011;3455;42.150;24.734;2023-04-07T02:29:22;7.97;;;7.13;;
6834;SDS011;3455;42.150;24.734;2023-04-07T02:31:48;7.10;;;6.27;;
6834;SDS011;3455;42.150;24.734;2023-04-07T02:34:15;8.40;;;6.70;;
6834;SDS011;3455;42.150;24.734;2023-04-07T02:36:43;7.60;;;6.90;;
6834;SDS011;3455;42.150;24.734;2023-04-07T02:39:10;7.73;;;7.07;;
6834;SDS011;3455;42.150;24.734;2023-04-07T02:41:37;7.03;;;6.50;;
6834;SDS011;3455;42.150;24.734;2023-04-07T02:44:04;7.50;;;6.80;;
6834;SDS011;3455;42.150;24.734;2023-04-07T02:46:31;6.87;;;6.27;;
6834;SDS011;3455;42.150;24.734;2023-04-07T02:48:57;8.03;;;7.27;;
6834;SDS011;3455;42.150;24.734;2023-04-07T02:51:24;7.50;;;6.93;;
6834;SDS011;3455;42.150;24.734;2023-04-07T02:53:53;7.77;;;7.20;;
6834;SDS011;3455;42.150;24.734;2023-04-07T02:56:19;7.43;;;6.77;;
6834;SDS011;3455;42.150;24.734;2023-04-07T02:58:46;7.40;;;6.87;;
6834;SDS011;3455;42.150;24.734;2023-04-07T03:01:13;7.80;;;7.23;;
6834;SDS011;3455;42.150;24.734;2023-04-07T03:03:40;7.30;;;6.73;;
6834;SDS011;3455;42.150;24.734;2023-04-07T03:06:08;8.47;;;7.63;;
6834;SDS011;3455;42.150;24.734;2023-04-07T03:08:35;7.70;;;7.20;;
6834;SDS011;3455;42.150;24.734;2023-04-07T03:11:03;8.00;;;7.20;;
6834;SDS011;3455;42.150;24.734;2023-04-07T03:13:30;13.23;;;7.10;;
6834;SDS011;3455;42.150;24.734;2023-04-07T03:15:57;8.40;;;7.40;;
6834;SDS011;3455;42.150;24.734;2023-04-07T03:18:23;8.20;;;7.37;;
6834;SDS011;3455;42.150;24.734;2023-04-07T03:20:50;8.07;;;7.40;;
6834;SDS011;3455;42.150;24.734;2023-04-07T03:23:19;8.23;;;7.40;;
6834;SDS011;3455;42.150;24.734;2023-04-07T03:25:47;7.87;;;7.27;;
6834;SDS011;3455;42.150;24.734;2023-04-07T03:28:16;8.97;;;7.37;;
6834;SDS011;3455;42.150;24.734;2023-04-07T03:30:42;10.73;;;7.17;;
6834;SDS011;3455;42.150;24.734;2023-04-07T03:33:09;7.17;;;6.60;;
6834;SDS011;3455;42.150;24.734;2023-04-07T03:35:36;9.53;;;6.80;;
6834;SDS011;3455;42.150;24.734;2023-04-07T03:38:03;7.53;;;6.83;;
6834;SDS011;3455;42.150;24.734;2023-04-07T03:40:29;9.93;;;7.90;;
6834;SDS011;3455;42.150;24.734;2023-04-07T03:42:57;8.90;;;7.00;;
6834;SDS011;3455;42.150;24.734;2023-04-07T03:45:25;7.40;;;6.80;;
6834;SDS011;3455;42.150;24.734;2023-04-07T03:47:52;7.60;;;6.90;;
6834;SDS011;3455;42.150;24.734;2023-04-07T03:50:19;8.30;;;7.03;;
6834;SDS011;3455;42.150;24.734;2023-04-07T03:52:46;7.63;;;7.03;;
6834;SDS011;3455;42.150;24.734;2023-04-07T03:55:13;8.40;;;7.43;;
6834;SDS011;3455;42.150;24.734;2023-04-07T03:57:40;8.63;;;7.87;;
6834;SDS011;3455;42.150;24.734;2023-04-07T04:00:07;7.27;;;6.67;;
6834;SDS011;3455;42.150;24.734;2023-04-07T04:02:36;7.53;;;6.80;;
6834;SDS011;3455;42.150;24.734;2023-04-07T04:05:03;7.37;;;6.77;;
6834;SDS011;3455;42.150;24.734;2023-04-07T04:07:30;7.47;;;6.87;;
6834;SDS011;3455;42.150;24.734;2023-04-07T04:09:57;7.90;;;7.20;;
6834;SDS011;3455;42.150;24.734;2023-04-07T04:12:24;9.97;;;7.60;;
6834;SDS011;3455;42.150;24.734;2023-04-07T04:14:51;8.03;;;7.33;;
6834;SDS011;3455;42.150;24.734;2023-04-07T04:17:18;8.13;;;7.53;;
6834;SDS011;3455;42.150;24.734;2023-04-07T04:19:46;9.37;;;7.90;;
6834;SDS011;3455;42.150;24.734;2023-04-07T04:22:13;8.53;;;7.83;;
6834;SDS011;3455;42.150;24.734;2023-04-07T04:24:40;8.67;;;7.97;;
6834;SDS011;3455;42.150;24.734;2023-04-07T04:27:07;9.20;;;7.30;;
6834;SDS011;3455;42.150;24.734;2023-04-07T04:29:33;10.60;;;8.17;;
6834;SDS011;3455;42.150;24.734;2023-04-07T04:32:00;9.57;;;8.57;;
6834;SDS011;3455;42.150;24.734;2023-04-07T04:34:27;9.47;;;8.30;;
6834;SDS011;3455;42.150;24.734;2023-04-07T04:36:55;10.10;;;8.20;;
6834;SDS011;3455;42.150;24.734;2023-04-07T04:39:22;10.63;;;8.03;;
6834;SDS011;3455;42.150;24.734;2023-04-07T04:41:49;13.47;;;7.33;;
6834;SDS011;3455;42.150;24.734;2023-04-07T04:44:15;14.33;;;8.07;;
6834;SDS011;3455;42.150;24.734;2023-04-07T04:46:42;12.07;;;8.53;;
6834;SDS011;3455;42.150;24.734;2023-04-07T04:49:09;8.47;;;7.67;;
6834;SDS011;3455;42.150;24.734;2023-04-07T04:51:36;9.57;;;7.03;;
6834;SDS011;3455;42.150;24.734;2023-04-07T04:54:04;9.83;;;7.83;;
6834;SDS011;3455;42.150;24.734;2023-04-07T04:56:31;9.83;;;8.10;;
6834;SDS011;3455;42.150;24.734;2023-04-07T04:58:58;11.57;;;8.40;;
6834;SDS011;3455;42.150;24.734;2023-04-07T05:01:25;11.87;;;7.83;;
6834;SDS011;3455;42.150;24.734;2023-04-07T05:03:51;9.13;;;8.30;;
6834;SDS011;3455;42.150;24.734;2023-04-07T05:06:18;12.83;;;8.10;;
6834;SDS011;3455;42.150;24.734;2023-04-07T05:08:45;11.77;;;8.17;;
6834;SDS011;3455;42.150;24.734;2023-04-07T05:11:13;13.97;;;8.20;;
6834;SDS011;3455;42.150;24.734;2023-04-07T05:13:40;10.63;;;8.20;;
6834;SDS011;3455;42.150;24.734;2023-04-07T05:16:06;11.33;;;8.37;;
6834;SDS011;3455;42.150;24.734;2023-04-07T05:18:33;9.87;;;8.27;;
6834;SDS011;3455;42.150;24.734;2023-04-07T05:21:00;11.20;;;7.97;;
6834;SDS011;3455;42.150;24.734;2023-04-07T05:23:27;8.90;;;7.70;;
6834;SDS011;3455;42.150;24.734;2023-04-07T05:25:54;8.87;;;7.97;;
6834;SDS011;3455;42.150;24.734;2023-04-07T05:28:22;10.03;;;7.10;;
6834;SDS011;3455;42.150;24.734;2023-04-07T05:30:49;10.47;;;8.03;;
6834;SDS011;3455;42.150;24.734;2023-04-07T05:33:16;8.70;;;7.77;;
6834;SDS011;3455;42.150;24.734;2023-04-07T05:35:43;7.87;;;7.03;;
6834;SDS011;3455;42.150;24.734;2023-04-07T05:38:09;8.00;;;6.57;;
6834;SDS011;3455;42.150;24.734;2023-04-07T05:40:36;7.40;;;6.70;;
6834;SDS011;3455;42.150;24.734;2023-04-07T05:43:03;7.97;;;6.83;;
6834;SDS011;3455;42.150;24.734;2023-04-07T05:45:31;7.37;;;5.93;;
6834;SDS011;3455;42.150;24.734;2023-04-07T05:47:58;9.80;;;6.07;;
6834;SDS011;3455;42.150;24.734;2023-04-07T05:50:25;6.80;;;6.13;;
6834;SDS011;3455;42.150;24.734;2023-04-07T05:52:52;7.03;;;6.43;;
6834;SDS011;3455;42.150;24.734;2023-04-07T05:55:19;6.50;;;5.90;;
6834;SDS011;3455;42.150;24.734;2023-04-07T05:57:45;8.13;;;6.27;;
6834;SDS011;3455;42.150;24.734;2023-04-07T06:00:13;6.23;;;5.73;;
6834;SDS011;3455;42.150;24.734;2023-04-07T06:02:42;9.70;;;6.73;;
6834;SDS011;3455;42.150;24.734;2023-04-07T06:05:09;6.07;;;5.63;;
6834;SDS011;3455;42.150;24.734;2023-04-07T06:07:35;6.53;;;6.03;;
6834;SDS011;3455;42.150;24.734;2023-04-07T06:10:02;6.40;;;5.97;;
6834;SDS011;3455;42.150;24.734;2023-04-07T06:12:29;6.90;;;6.37;;
6834;SDS011;3455;42.150;24.734;2023-04-07T06:14:56;6.80;;;6.33;;
6834;SDS011;3455;42.150;24.734;2023-04-07T06:17:23;9.23;;;6.87;;
6834;SDS011;3455;42.150;24.734;2023-04-07T06:19:51;6.40;;;6.00;;
6834;SDS011;3455;42.150;24.734;2023-04-07T06:22:18;6.77;;;6.17;;
6834;SDS011;3455;42.150;24.734;2023-04-07T06:24:45;6.87;;;5.77;;
6834;SDS011;3455;42.150;24.734;2023-04-07T06:27:11;6.40;;;5.87;;
6834;SDS011;3455;42.150;24.734;2023-04-07T06:29:38;6.83;;;6.23;;
6834;SDS011;3455;42.150;24.734;2023-04-07T06:32:05;6.90;;;6.30;;
6834;SDS011;3455;42.150;24.734;2023-04-07T06:34:32;5.87;;;5.57;;
6834;SDS011;3455;42.150;24.734;2023-04-07T06:37:00;5.80;;;5.40;;
6834;SDS011;3455;42.150;24.734;2023-04-07T06:39:27;7.00;;;6.60;;
6834;SDS011;3455;42.150;24.734;2023-04-07T06:41:55;6.30;;;5.80;;
6834;SDS011;3455;42.150;24.734;2023-04-07T06:44:22;8.03;;;6.80;;
6834;SDS011;3455;42.150;24.734;2023-04-07T06:46:48;6.50;;;6.00;;
6834;SDS011;3455;42.150;24.734;2023-04-07T06:49:17;6.60;;;6.07;;
6834;SDS011;3455;42.150;24.734;2023-04-07T06:51:44;6.17;;;5.77;;
6834;SDS011;3455;42.150;24.734;2023-04-07T06:54:12;6.60;;;6.10;;
6834;SDS011;3455;42.150;24.734;2023-04-07T06:56:40;6.07;;;5.55;;
6834;SDS011;3455;42.150;24.734;2023-04-07T06:59:08;5.97;;;5.47;;
6834;SDS011;3455;42.150;24.734;2023-04-07T07:01:35;6.80;;;5.63;;
6834;SDS011;3455;42.150;24.734;2023-04-07T07:04:02;8.48;;;6.28;;
6834;SDS011;3455;42.150;24.734;2023-04-07T07:06:29;6.00;;;5.53;;
6834;SDS011;3455;42.150;24.734;2023-04-07T07:09:10;5.05;;;4.65;;
6834;SDS011;3455;42.150;24.734;2023-04-07T07:11:37;5.50;;;5.13;;
6834;SDS011;3455;42.150;24.734;2023-04-07T07:14:04;6.85;;;5.47;;
6834;SDS011;3455;42.150;24.734;2023-04-07T07:16:31;8.98;;;8.27;;
6834;SDS011;3455;42.150;24.734;2023-04-07T07:18:57;6.05;;;5.55;;
6834;SDS011;3455;42.150;24.734;2023-04-07T07:21:24;7.15;;;6.60;;
6834;SDS011;3455;42.150;24.734;2023-04-07T07:23:51;5.22;;;4.82;;
6834;SDS011;3455;42.150;24.734;2023-04-07T07:26:19;6.05;;;5.13;;
6834;SDS011;3455;42.150;24.734;2023-04-07T07:28:46;5.55;;;5.05;;
6834;SDS011;3455;42.150;24.734;2023-04-07T07:31:13;7.28;;;6.03;;
6834;SDS011;3455;42.150;24.734;2023-04-07T07:33:41;6.68;;;5.60;;
6834;SDS011;3455;42.150;24.734;2023-04-07T07:36:10;6.70;;;4.85;;
6834;SDS011;3455;42.150;24.734;2023-04-07T07:38:37;7.15;;;5.57;;
6834;SDS011;3455;42.150;24.734;2023-04-07T07:41:05;6.10;;;5.57;;
6834;SDS011;3455;42.150;24.734;2023-04-07T07:43:33;5.28;;;4.78;;
6834;SDS011;3455;42.150;24.734;2023-04-07T07:46:01;7.07;;;6.57;;
6834;SDS011;3455;42.150;24.734;2023-04-07T07:48:28;6.13;;;5.68;;
6834;SDS011;3455;42.150;24.734;2023-04-07T07:50:54;5.50;;;5.15;;
6834;SDS011;3455;42.150;24.734;2023-04-07T07:53:21;6.32;;;5.72;;
6834;SDS011;3455;42.150;24.734;2023-04-07T07:55:48;6.35;;;5.95;;
6834;SDS011;3455;42.150;24.734;2023-04-07T07:58:15;9.95;;;8.95;;
6834;SDS011;3455;42.150;24.734;2023-04-07T08:00:43;6.60;;;6.05;;
6834;SDS011;3455;42.150;24.734;2023-04-07T08:03:10;6.75;;;6.18;;
6834;SDS011;3455;42.150;24.734;2023-04-07T08:05:36;6.68;;;6.00;;
6834;SDS011;3455;42.150;24.734;2023-04-07T08:08:03;6.13;;;5.63;;
6834;SDS011;3455;42.150;24.734;2023-04-07T08:10:30;5.90;;;5.50;;
6834;SDS011;3455;42.150;24.734;2023-04-07T08:12:57;6.05;;;5.65;;
6834;SDS011;3455;42.150;24.734;2023-04-07T08:15:23;6.53;;;6.03;;
6834;SDS011;3455;42.150;24.734;2023-04-07T08:17:52;6.85;;;5.57;;
6834;SDS011;3455;42.150;24.734;2023-04-07T08:20:18;5.95;;;5.55;;
6834;SDS011;3455;42.150;24.734;2023-04-07T08:22:45;6.05;;;5.65;;
6834;SDS011;3455;42.150;24.734;2023-04-07T08:25:12;5.35;;;5.05;;
6834;SDS011;3455;42.150;24.734;2023-04-07T08:27:38;5.68;;;5.30;;
6834;SDS011;3455;42.150;24.734;2023-04-07T08:30:06;6.22;;;5.72;;
6834;SDS011;3455;42.150;24.734;2023-04-07T08:32:33;5.95;;;5.55;;
6834;SDS011;3455;42.150;24.734;2023-04-07T08:35:02;6.40;;;5.97;;
6834;SDS011;3455;42.150;24.734;2023-04-07T08:37:30;6.22;;;5.18;;
6834;SDS011;3455;42.150;24.734;2023-04-07T08:39:58;5.57;;;5.28;;
6834;SDS011;3455;42.150;24.734;2023-04-07T08:42:26;4.85;;;4.63;;
6834;SDS011;3455;42.150;24.734;2023-04-07T08:44:54;5.68;;;4.97;;
6834;SDS011;3455;42.150;24.734;2023-04-07T08:47:24;5.05;;;4.85;;
6834;SDS011;3455;42.150;24.734;2023-04-07T08:49:52;5.40;;;5.00;;
6834;SDS011;3455;42.150;24.734;2023-04-07T08:52:23;4.85;;;4.57;;
6834;SDS011;3455;42.150;24.734;2023-04-07T08:54:58;6.72;;;5.38;;
6834;SDS011;3455;42.150;24.734;2023-04-07T08:57:27;5.45;;;5.05;;
6834;SDS011;3455;42.150;24.734;2023-04-07T08:59:57;6.95;;;6.35;;
6834;SDS011;3455;42.150;24.734;2023-04-07T09:02:29;5.75;;;5.22;;
6834;SDS011;3455;42.150;24.734;2023-04-07T09:04:57;6.88;;;5.10;;
6834;SDS011;3455;42.150;24.734;2023-04-07T09:07:26;5.28;;;4.97;;
6834;SDS011;3455;42.150;24.734;2023-04-07T09:09:53;5.20;;;5.00;;
6834;SDS011;3455;42.150;24.734;2023-04-07T09:12:21;5.03;;;4.72;;
6834;SDS011;3455;42.150;24.734;2023-04-07T09:14:47;4.82;;;4.53;;
6834;SDS011;3455;42.150;24.734;2023-04-07T09:17:14;6.22;;;5.63;;
6834;SDS011;3455;42.150;24.734;2023-04-07T09:19:41;5.15;;;4.75;;
6834;SDS011;3455;42.150;24.734;2023-04-07T09:22:08;4.93;;;4.63;;
6834;SDS011;3455;42.150;24.734;2023-04-07T09:24:37;5.47;;;5.18;;
6834;SDS011;3455;42.150;24.734;2023-04-07T09:27:11;4.80;;;4.50;;
6834;SDS011;3455;42.150;24.734;2023-04-07T09:29:39;5.15;;;4.75;;
6834;SDS011;3455;42.150;24.734;2023-04-07T09:32:07;4.60;;;4.40;;
6834;SDS011;3455;42.150;24.734;2023-04-07T09:34:35;5.00;;;4.70;;
6834;SDS011;3455;42.150;24.734;2023-04-07T09:37:03;4.50;;;4.20;;
6834;SDS011;3455;42.150;24.734;2023-04-07T09:39:32;4.40;;;4.20;;
6834;SDS011;3455;42.150;24.734;2023-04-07T09:42:00;4.93;;;4.53;;
6834;SDS011;3455;42.150;24.734;2023-04-07T09:44:38;5.30;;;5.00;;
6834;SDS011;3455;42.150;24.734;2023-04-07T09:47:05;5.22;;;4.93;;
6834;SDS011;3455;42.150;24.734;2023-04-07T09:49:32;4.90;;;4.70;;
6834;SDS011;3455;42.150;24.734;2023-04-07T09:51:59;4.45;;;4.25;;
6834;SDS011;3455;42.150;24.734;2023-04-07T09:54:32;4.72;;;4.35;;
6834;SDS011;3455;42.150;24.734;2023-04-07T09:57:01;5.82;;;5.53;;
6834;SDS011;3455;42.150;24.734;2023-04-07T09:59:29;5.35;;;5.05;;
6834;SDS011;3455;42.150;24.734;2023-04-07T10:01:57;5.13;;;4.93;;
6834;SDS011;3455;42.150;24.734;2023-04-07T10:04:25;4.45;;;4.15;;
6834;SDS011;3455;42.150;24.734;2023-04-07T10:06:53;6.07;;;5.68;;
6834;SDS011;3455;42.150;24.734;2023-04-07T10:09:20;5.30;;;4.90;;
6834;SDS011;3455;42.150;24.734;2023-04-07T10:11:49;5.22;;;4.80;;
6834;SDS011;3455;42.150;24.734;2023-04-07T10:14:17;4.78;;;4.47;;
6834;SDS011;3455;42.150;24.734;2023-04-07T10:16:45;5.40;;;5.10;;
6834;SDS011;3455;42.150;24.734;2023-04-07T10:19:13;5.63;;;5.22;;
6834;SDS011;3455;42.150;24.734;2023-04-07T10:21:40;5.45;;;5.05;;
6834;SDS011;3455;42.150;24.734;2023-04-07T10:24:12;5.43;;;5.00;;
6834;SDS011;3455;42.150;24.734;2023-04-07T10:26:50;4.80;;;4.60;;
6834;SDS011;3455;42.150;24.734;2023-04-07T10:29:23;6.18;;;5.88;;
6834;SDS011;3455;42.150;24.734;2023-04-07T10:31:51;5.35;;;4.95;;
6834;SDS011;3455;42.150;24.734;2023-04-07T10:37:19;5.88;;;5.45;;
6834;SDS011;3455;42.150;24.734;2023-04-07T10:39:46;6.00;;;5.30;;
6834;SDS011;3455;42.150;24.734;2023-04-07T10:45:13;6.20;;;5.90;;
6834;SDS011;3455;42.150;24.734;2023-04-07T10:50:35;5.72;;;5.53;;
6834;SDS011;3455;42.150;24.734;2023-04-07T10:53:05;6.40;;;6.10;;
6834;SDS011;3455;42.150;24.734;2023-04-07T10:55:34;7.35;;;6.85;;
6834;SDS011;3455;42.150;24.734;2023-04-07T10:58:15;6.75;;;6.07;;
6834;SDS011;3455;42.150;24.734;2023-04-07T11:01:15;6.60;;;6.20;;
6834;SDS011;3455;42.150;24.734;2023-04-07T11:03:58;5.90;;;5.60;;
6834;SDS011;3455;42.150;24.734;2023-04-07T11:06:25;6.70;;;6.18;;
6834;SDS011;3455;42.150;24.734;2023-04-07T11:08:52;6.82;;;6.22;;
6834;SDS011;3455;42.150;24.734;2023-04-07T11:11:36;7.95;;;7.18;;
6834;SDS011;3455;42.150;24.734;2023-04-07T11:14:04;11.15;;;10.45;;
6834;SDS011;3455;42.150;24.734;2023-04-07T11:16:36;6.63;;;6.28;;
6834;SDS011;3455;42.150;24.734;2023-04-07T11:19:04;6.07;;;5.68;;
6834;SDS011;3455;42.150;24.734;2023-04-07T11:21:31;6.57;;;6.13;;
6834;SDS011;3455;42.150;24.734;2023-04-07T11:23:58;7.28;;;6.68;;
6834;SDS011;3455;42.150;24.734;2023-04-07T11:26:24;8.43;;;6.18;;
6834;SDS011;3455;42.150;24.734;2023-04-07T11:28:52;6.85;;;6.45;;
6834;SDS011;3455;42.150;24.734;2023-04-07T11:31:22;6.93;;;6.43;;
6834;SDS011;3455;42.150;24.734;2023-04-07T11:33:54;6.78;;;6.28;;
6834;SDS011;3455;42.150;24.734;2023-04-07T11:36:27;6.65;;;6.15;;
6834;SDS011;3455;42.150;24.734;2023-04-07T11:38:56;6.22;;;5.88;;
6834;SDS011;3455;42.150;24.734;2023-04-07T11:41:23;10.35;;;9.55;;
6834;SDS011;3455;42.150;24.734;2023-04-07T11:44:07;6.97;;;6.38;;
6834;SDS011;3455;42.150;24.734;2023-04-07T11:46:36;6.72;;;6.22;;
6834;SDS011;3455;42.150;24.734;2023-04-07T11:49:11;7.25;;;6.78;;
6834;SDS011;3455;42.150;24.734;2023-04-07T11:51:42;6.90;;;6.32;;
6834;SDS011;3455;42.150;24.734;2023-04-07T11:54:10;6.90;;;6.38;;
6834;SDS011;3455;42.150;24.734;2023-04-07T11:56:43;6.85;;;6.30;;
6834;SDS011;3455;42.150;24.734;2023-04-07T11:59:18;6.38;;;5.93;;
6834;SDS011;3455;42.150;24.734;2023-04-07T12:01:47;7.10;;;6.50;;
6834;SDS011;3455;42.150;24.734;2023-04-07T12:04:16;6.03;;;5.72;;
6834;SDS011;3455;42.150;24.734;2023-04-07T12:06:43;6.57;;;6.00;;
6834;SDS011;3455;42.150;24.734;2023-04-07T12:09:24;6.55;;;6.13;;
6834;SDS011;3455;42.150;24.734;2023-04-07T12:11:56;6.05;;;5.65;;
6834;SDS011;3455;42.150;24.734;2023-04-07T12:14:23;6.10;;;5.60;;
6834;SDS011;3455;42.150;24.734;2023-04-07T12:16:51;6.32;;;5.93;;
6834;SDS011;3455;42.150;24.734;2023-04-07T12:19:21;6.43;;;6.10;;
6834;SDS011;3455;42.150;24.734;2023-04-07T12:21:48;6.05;;;5.75;;
6834;SDS011;3455;42.150;24.734;2023-04-07T12:24:15;6.10;;;5.65;;
6834;SDS011;3455;42.150;24.734;2023-04-07T12:26:42;6.30;;;5.85;;
6834;SDS011;3455;42.150;24.734;2023-04-07T12:29:08;5.80;;;5.50;;
6834;SDS011;3455;42.150;24.734;2023-04-07T12:31:35;6.22;;;5.93;;
6834;SDS011;3455;42.150;24.734;2023-04-07T12:34:02;6.85;;;6.22;;
6834;SDS011;3455;42.150;24.734;2023-04-07T12:36:30;6.20;;;5.78;;
6834;SDS011;3455;42.150;24.734;2023-04-07T12:38:57;5.88;;;5.57;;
6834;SDS011;3455;42.150;24.734;2023-04-07T12:41:24;6.00;;;5.68;;
6834;SDS011;3455;42.150;24.734;2023-04-07T12:43:51;6.18;;;5.85;;
6834;SDS011;3455;42.150;24.734;2023-04-07T12:46:18;6.85;;;6.43;;
6834;SDS011;3455;42.150;24.734;2023-04-07T12:48:45;5.45;;;5.13;;
6834;SDS011;3455;42.150;24.734;2023-04-07T12:51:13;6.20;;;5.80;;
6834;SDS011;3455;42.150;24.734;2023-04-07T12:53:41;5.95;;;5.50;;
6834;SDS011;3455;42.150;24.734;2023-04-07T12:56:08;6.18;;;5.70;;
6834;SDS011;3455;42.150;24.734;2023-04-07T12:58:37;6.55;;;5.95;;
6834;SDS011;3455;42.150;24.734;2023-04-07T13:01:04;5.75;;;5.45;;
6834;SDS011;3455;42.150;24.734;2023-04-07T13:03:31;6.03;;;5.70;;
6834;SDS011;3455;42.150;24.734;2023-04-07T13:05:58;5.93;;;5.53;;
6834;SDS011;3455;42.150;24.734;2023-04-07T13:08:25;6.80;;;6.30;;
6834;SDS011;3455;42.150;24.734;2023-04-07T13:10:54;6.00;;;5.70;;
6834;SDS011;3455;42.150;24.734;2023-04-07T13:13:21;6.10;;;5.80;;
6834;SDS011;3455;42.150;24.734;2023-04-07T13:15:48;5.93;;;5.43;;
6834;SDS011;3455;42.150;24.734;2023-04-07T13:18:15;6.20;;;5.68;;
6834;SDS011;3455;42.150;24.734;2023-04-07T13:20:41;6.43;;;6.00;;
6834;SDS011;3455;42.150;24.734;2023-04-07T13:23:08;6.50;;;6.15;;
6834;SDS011;3455;42.150;24.734;2023-04-07T13:25:35;6.40;;;6.00;;
6834;SDS011;3455;42.150;24.734;2023-04-07T13:28:03;6.32;;;6.03;;
6834;SDS011;3455;42.150;24.734;2023-04-07T13:30:30;6.38;;;6.07;;
6834;SDS011;3455;42.150;24.734;2023-04-07T13:32:57;5.78;;;5.47;;
6834;SDS011;3455;42.150;24.734;2023-04-07T13:35:24;7.22;;;6.60;;
6834;SDS011;3455;42.150;24.734;2023-04-07T13:37:50;6.43;;;6.03;;
6834;SDS011;3455;42.150;24.734;2023-04-07T13:40:17;6.57;;;6.13;;
6834;SDS011;3455;42.150;24.734;2023-04-07T13:42:44;6.85;;;6.45;;
6834;SDS011;3455;42.150;24.734;2023-04-07T13:45:12;6.43;;;5.93;;
6834;SDS011;3455;42.150;24.734;2023-04-07T13:47:39;6.07;;;5.75;;
6834;SDS011;3455;42.150;24.734;2023-04-07T13:50:06;5.97;;;5.68;;
6834;SDS011;3455;42.150;24.734;2023-04-07T13:52:33;7.18;;;6.15;;
6834;SDS011;3455;42.150;24.734;2023-04-07T13:55:00;6.70;;;6.30;;
6834;SDS011;3455;42.150;24.734;2023-04-07T13:57:28;6.75;;;6.00;;
6834;SDS011;3455;42.150;24.734;2023-04-07T13:59:55;6.63;;;6.22;;
6834;SDS011;3455;42.150;24.734;2023-04-07T14:02:23;6.90;;;6.50;;
6834;SDS011;3455;42.150;24.734;2023-04-07T14:04:51;8.48;;;6.28;;
6834;SDS011;3455;42.150;24.734;2023-04-07T14:07:18;6.47;;;6.05;;
6834;SDS011;3455;42.150;24.734;2023-04-07T14:09:45;7.53;;;6.97;;
6834;SDS011;3455;42.150;24.734;2023-04-07T14:12:12;9.30;;;8.48;;
6834;SDS011;3455;42.150;24.734;2023-04-07T14:14:39;7.22;;;6.82;;
6834;SDS011;3455;42.150;24.734;2023-04-07T14:17:06;9.32;;;8.10;;
6834;SDS011;3455;42.150;24.734;2023-04-07T14:19:34;9.02;;;8.27;;
6834;SDS011;3455;42.150;24.734;2023-04-07T14:22:00;9.18;;;8.35;;
6834;SDS011;3455;42.150;24.734;2023-04-07T14:24:27;12.50;;;9.57;;
6834;SDS011;3455;42.150;24.734;2023-04-07T14:26:54;10.70;;;9.68;;
6834;SDS011;3455;42.150;24.734;2023-04-07T14:29:21;10.10;;;9.15;;
6834;SDS011;3455;42.150;24.734;2023-04-07T14:31:47;7.63;;;7.13;;
6834;SDS011;3455;42.150;24.734;2023-04-07T14:34:15;7.75;;;7.10;;
6834;SDS011;3455;42.150;24.734;2023-04-07T14:36:45;7.13;;;6.40;;
6834;SDS011;3455;42.150;24.734;2023-04-07T14:39:18;5.95;;;5.55;;
6834;SDS011;3455;42.150;24.734;2023-04-07T14:41:45;6.43;;;6.13;;
6834;SDS011;3455;42.150;24.734;2023-04-07T14:44:12;10.05;;;6.45;;
6834;SDS011;3455;42.150;24.734;2023-04-07T14:46:38;6.10;;;5.75;;
6834;SDS011;3455;42.150;24.734;2023-04-07T14:49:06;7.60;;;6.47;;
6834;SDS011;3455;42.150;24.734;2023-04-07T14:51:33;6.20;;;5.90;;
6834;SDS011;3455;42.150;24.734;2023-04-07T14:54:01;6.65;;;5.95;;
6834;SDS011;3455;42.150;24.734;2023-04-07T14:56:28;8.10;;;5.65;;
6834;SDS011;3455;42.150;24.734;2023-04-07T14:58:55;6.03;;;5.63;;
6834;SDS011;3455;42.150;24.734;2023-04-07T15:01:21;5.88;;;5.47;;
6834;SDS011;3455;42.150;24.734;2023-04-07T15:03:49;6.13;;;5.63;;
6834;SDS011;3455;42.150;24.734;2023-04-07T15:06:16;7.32;;;5.80;;
6834;SDS011;3455;42.150;24.734;2023-04-07T15:08:44;6.03;;;5.25;;
6834;SDS011;3455;42.150;24.734;2023-04-07T15:11:12;6.75;;;6.22;;
6834;SDS011;3455;42.150;24.734;2023-04-07T15:13:39;6.63;;;6.10;;